createdAt,value
2018-10-15T00:01:39.738Z,19.30
2018-10-15T00:04:09.094Z,17.30
2018-10-15T00:06:38.471Z,18.07
2018-10-15T00:09:09.199Z,17.80
2018-10-15T00:11:38.554Z,18.43
2018-10-15T00:14:07.935Z,17.77
2018-10-15T00:16:37.256Z,17.73
2018-10-15T00:19:06.616Z,18.03
2018-10-15T00:21:35.971Z,17.57
2018-10-15T00:24:05.819Z,17.10
2018-10-15T00:26:35.182Z,19.73
2018-10-15T00:29:04.600Z,16.63
2018-10-15T00:31:33.912Z,17.10
2018-10-15T00:34:03.298Z,19.03
2018-10-15T00:36:32.626Z,17.03
2018-10-15T00:39:01.975Z,19.87
2018-10-15T00:41:31.308Z,18.00
2018-10-15T00:44:00.704Z,17.23
2018-10-15T00:46:30.017Z,18.20
2018-10-15T00:48:59.346Z,17.03
2018-10-15T00:51:28.652Z,16.33
2018-10-15T00:53:57.935Z,16.47
2018-10-15T00:56:30.724Z,18.73
2018-10-15T00:59:00.075Z,16.40
2018-10-15T01:01:29.544Z,17.27
2018-10-15T01:03:58.911Z,18.43
2018-10-15T01:06:28.217Z,19.27
2018-10-15T01:08:57.568Z,17.30
2018-10-15T01:11:26.816Z,21.43
2018-10-15T01:13:56.139Z,17.63
2018-10-15T01:16:25.443Z,18.87
2018-10-15T01:18:54.738Z,18.83
2018-10-15T01:21:24.075Z,20.53
2018-10-15T01:23:53.298Z,17.23
2018-10-15T01:26:26.264Z,18.17
2018-10-15T01:28:55.611Z,20.90
2018-10-15T01:31:24.879Z,19.03
2018-10-15T01:33:54.188Z,16.07
2018-10-15T01:36:23.434Z,16.53
2018-10-15T01:38:52.759Z,17.00
2018-10-15T01:41:22.066Z,16.57
2018-10-15T01:43:51.671Z,16.80
2018-10-15T01:46:21.679Z,17.47
2018-10-15T01:48:51.027Z,18.83
2018-10-15T01:51:20.663Z,16.43
2018-10-15T01:53:49.902Z,15.93
2018-10-15T01:56:19.249Z,16.43
2018-10-15T01:58:48.506Z,15.33
2018-10-15T02:01:17.947Z,17.00
2018-10-15T02:03:47.259Z,15.90
2018-10-15T02:06:16.610Z,16.33
2018-10-15T02:08:45.952Z,16.17
2018-10-15T02:11:15.299Z,17.03
2018-10-15T02:13:44.838Z,15.17
2018-10-15T02:16:14.109Z,16.77
2018-10-15T02:18:43.467Z,17.43
2018-10-15T02:21:12.779Z,17.33
2018-10-15T02:23:42.079Z,15.37
2018-10-15T02:26:11.427Z,15.27
2018-10-15T02:28:40.738Z,14.30
2018-10-15T02:31:10.063Z,15.40
2018-10-15T02:33:39.383Z,16.90
2018-10-15T02:36:08.806Z,16.50
2018-10-15T02:38:38.118Z,16.83
2018-10-15T02:41:08.026Z,15.87
2018-10-15T02:43:37.344Z,16.77
2018-10-15T02:46:06.947Z,17.13
2018-10-15T02:48:36.302Z,18.73
2018-10-15T02:51:06.069Z,17.90
2018-10-15T02:53:35.411Z,17.30
2018-10-15T02:56:04.755Z,17.50
2018-10-15T02:58:34.129Z,18.00
2018-10-15T03:01:03.411Z,17.40
2018-10-15T03:03:32.752Z,18.47
2018-10-15T03:06:01.989Z,17.63
2018-10-15T03:08:31.307Z,18.10
2018-10-15T03:11:00.570Z,16.37
2018-10-15T03:13:29.887Z,16.87
2018-10-15T03:15:59.264Z,20.20
2018-10-15T03:18:28.574Z,17.23
2018-10-15T03:20:57.889Z,17.10
2018-10-15T03:23:27.207Z,17.97
2018-10-15T03:25:56.520Z,16.80
2018-10-15T03:28:25.806Z,15.83
2018-10-15T03:30:55.090Z,15.40
2018-10-15T03:33:24.424Z,16.63
2018-10-15T03:35:53.703Z,15.30
2018-10-15T03:38:23.143Z,16.73
2018-10-15T03:40:52.478Z,15.53
2018-10-15T03:43:21.788Z,18.27
2018-10-15T03:45:51.130Z,16.30
2018-10-15T03:48:20.465Z,19.00
2018-10-15T03:50:49.788Z,15.97
2018-10-15T03:53:19.105Z,16.97
2018-10-15T03:55:48.435Z,15.53
2018-10-15T03:58:17.935Z,17.47
2018-10-15T04:00:47.255Z,16.70
2018-10-15T04:03:16.619Z,16.00
2018-10-15T04:05:45.889Z,14.83
2018-10-15T04:08:15.209Z,13.77
2018-10-15T04:10:44.535Z,16.02
2018-10-15T04:13:13.855Z,17.62
2018-10-15T04:15:43.167Z,17.63
2018-10-15T04:18:12.428Z,17.40
2018-10-15T04:20:41.702Z,20.47
2018-10-15T04:23:11.025Z,17.10
2018-10-15T04:25:40.339Z,13.63
2018-10-15T04:28:09.656Z,16.10
2018-10-15T04:30:38.981Z,15.30
2018-10-15T04:33:08.277Z,16.20
2018-10-15T04:35:37.655Z,18.67
2018-10-15T04:38:07.036Z,16.17
2018-10-15T04:40:36.287Z,16.63
2018-10-15T04:43:05.800Z,15.33
2018-10-15T04:45:35.165Z,16.90
2018-10-15T04:48:04.515Z,16.93
2018-10-15T04:50:33.788Z,14.77
2018-10-15T04:53:03.111Z,15.27
2018-10-15T04:55:32.444Z,14.60
2018-10-15T04:58:01.716Z,15.30
2018-10-15T05:00:31.129Z,15.20
2018-10-15T05:03:00.334Z,20.57
2018-10-15T05:05:29.639Z,12.70
2018-10-15T05:07:58.949Z,14.57
2018-10-15T05:10:28.206Z,14.50
2018-10-15T05:12:57.546Z,16.90
2018-10-15T05:15:26.908Z,14.47
2018-10-15T05:17:56.225Z,17.20
2018-10-15T05:20:25.547Z,18.43
2018-10-15T05:22:54.827Z,15.27
2018-10-15T05:25:24.203Z,15.60
2018-10-15T05:27:53.447Z,12.67
2018-10-15T05:30:22.883Z,15.40
2018-10-15T05:32:52.210Z,16.47
2018-10-15T05:35:21.523Z,15.93
2018-10-15T05:37:50.850Z,13.37
2018-10-15T05:40:20.113Z,16.40
2018-10-15T05:42:49.423Z,14.37
2018-10-15T05:45:18.743Z,16.37
2018-10-15T05:47:48.067Z,15.27
2018-10-15T05:50:17.409Z,15.23
2018-10-15T05:52:46.694Z,14.67
2018-10-15T05:55:16.032Z,15.13
2018-10-15T05:57:45.285Z,15.60
2018-10-15T06:00:15.531Z,17.03
2018-10-15T06:02:45.105Z,14.77
2018-10-15T06:05:14.445Z,14.30
2018-10-15T06:07:43.714Z,15.50
2018-10-15T06:10:16.886Z,15.23
2018-10-15T06:12:47.957Z,15.97
2018-10-15T06:15:17.324Z,15.83
2018-10-15T06:17:46.796Z,15.17
2018-10-15T06:20:16.123Z,16.33
2018-10-15T06:22:45.506Z,16.80
2018-10-15T06:25:15.630Z,14.93
2018-10-15T06:27:48.327Z,15.37
2018-10-15T06:30:18.238Z,15.43
2018-10-15T06:32:47.535Z,17.67
2018-10-15T06:35:16.799Z,17.03
2018-10-15T06:37:46.091Z,16.27
2018-10-15T06:40:15.522Z,16.67
2018-10-15T06:42:44.896Z,15.67
2018-10-15T06:45:14.687Z,17.83
2018-10-15T06:47:44.088Z,19.20
2018-10-15T06:50:13.657Z,16.77
2018-10-15T06:52:43.048Z,16.60
2018-10-15T06:55:12.442Z,17.70
2018-10-15T06:57:41.754Z,14.97
2018-10-15T07:00:12.555Z,16.73
2018-10-15T07:02:41.924Z,15.50
2018-10-15T07:05:11.357Z,14.47
2018-10-15T07:07:40.834Z,15.23
2018-10-15T07:10:10.448Z,15.23
2018-10-15T07:12:39.996Z,17.20
2018-10-15T07:15:10.539Z,16.17
2018-10-15T07:17:40.002Z,14.83
2018-10-15T07:20:09.532Z,16.87
2018-10-15T07:22:38.718Z,15.67
2018-10-15T07:25:19.060Z,15.33
2018-10-15T07:27:48.663Z,14.47
2018-10-15T07:30:18.088Z,13.80
2018-10-15T07:32:47.440Z,16.43
2018-10-15T07:35:16.764Z,14.90
2018-10-15T07:37:45.533Z,16.43
2018-10-15T07:40:14.861Z,16.37
2018-10-15T07:42:43.636Z,15.67
2018-10-15T07:45:14.263Z,14.40
2018-10-15T07:47:44.263Z,15.30
2018-10-15T07:50:15.411Z,19.57
2018-10-15T07:52:45.151Z,15.07
2018-10-15T07:55:14.466Z,14.43
2018-10-15T07:57:44.006Z,15.33
2018-10-15T08:00:20.522Z,14.63
2018-10-15T08:02:50.328Z,13.43
2018-10-15T08:05:19.726Z,14.00
2018-10-15T08:07:49.616Z,15.20
2018-10-15T08:10:19.112Z,13.87
2018-10-15T08:12:48.914Z,13.83
2018-10-15T08:15:19.129Z,13.87
2018-10-15T08:17:48.499Z,13.00
2018-10-15T08:20:18.910Z,13.80
2018-10-15T08:22:48.902Z,15.20
2018-10-15T08:25:18.316Z,13.37
2018-10-15T08:27:47.680Z,13.73
2018-10-15T08:30:18.271Z,13.73
2018-10-15T08:32:47.638Z,12.83
2018-10-15T08:35:17.050Z,13.47
2018-10-15T08:37:46.399Z,12.80
2018-10-15T08:40:22.054Z,13.20
2018-10-15T08:42:52.445Z,10.50
2018-10-15T08:45:23.122Z,11.93
2018-10-15T08:47:52.750Z,13.67
2018-10-15T08:50:22.392Z,14.63
2018-10-15T08:52:52.394Z,16.00
2018-10-15T08:55:21.859Z,12.57
2018-10-15T08:57:51.196Z,13.00
2018-10-15T09:00:22.968Z,11.47
2018-10-15T09:02:52.416Z,12.10
2018-10-15T09:05:21.679Z,11.83
2018-10-15T09:07:51.207Z,13.00
2018-10-15T09:10:20.946Z,12.77
2018-10-15T09:12:50.437Z,13.40
2018-10-15T09:15:21.986Z,12.07
2018-10-15T09:17:51.456Z,12.13
2018-10-15T09:20:21.142Z,11.57
2018-10-15T09:22:50.550Z,11.90
2018-10-15T09:25:20.513Z,10.20
2018-10-15T09:27:49.977Z,10.60
2018-10-15T09:30:20.716Z,10.10
2018-10-15T09:32:50.163Z,9.07
2018-10-15T09:35:20.282Z,9.20
2018-10-15T09:37:49.894Z,10.63
2018-10-15T09:40:21.583Z,9.27
2018-10-15T09:42:50.991Z,12.00
2018-10-15T09:45:21.008Z,8.30
2018-10-15T09:47:51.628Z,11.80
2018-10-15T09:50:21.035Z,10.93
2018-10-15T09:52:50.383Z,13.53
2018-10-15T09:55:19.730Z,8.30
2018-10-15T09:57:49.157Z,8.67
2018-10-15T10:00:23.429Z,9.17
2018-10-15T10:02:54.198Z,9.73
2018-10-15T10:05:23.549Z,11.27
2018-10-15T10:07:52.984Z,9.27
2018-10-15T10:10:22.294Z,8.70
2018-10-15T10:12:51.772Z,8.97
2018-10-15T10:15:21.049Z,9.17
2018-10-15T10:17:50.539Z,10.77
2018-10-15T10:20:19.750Z,10.77
2018-10-15T10:22:49.143Z,10.27
2018-10-15T10:25:19.454Z,10.07
2018-10-15T10:27:48.810Z,8.70
2018-10-15T10:30:18.512Z,9.47
2018-10-15T10:32:48.060Z,9.03
2018-10-15T10:35:47.186Z,8.80
2018-10-15T10:38:23.240Z,11.30
2018-10-15T10:40:52.561Z,9.73
2018-10-15T10:43:21.790Z,10.63
2018-10-15T10:45:51.136Z,7.70
2018-10-15T10:48:20.529Z,9.23
2018-10-15T10:50:49.864Z,7.47
2018-10-15T10:53:19.276Z,8.47
2018-10-15T10:55:48.598Z,9.37
2018-10-15T10:58:17.978Z,10.13
2018-10-15T11:00:47.391Z,9.17
2018-10-15T11:03:16.832Z,8.27
2018-10-15T11:05:46.197Z,9.50
2018-10-15T11:08:15.606Z,9.30
2018-10-15T11:10:44.864Z,8.57
2018-10-15T11:13:14.083Z,8.23
2018-10-15T11:15:43.511Z,11.63
2018-10-15T11:18:12.914Z,10.20
2018-10-15T11:20:42.280Z,8.93
2018-10-15T11:23:11.676Z,9.13
2018-10-15T11:25:44.431Z,8.30
2018-10-15T11:28:13.803Z,7.93
2018-10-15T11:30:43.177Z,8.50
2018-10-15T11:33:12.488Z,8.70
2018-10-15T11:35:41.825Z,12.93
2018-10-15T11:38:11.128Z,9.30
2018-10-15T11:40:40.474Z,9.03
2018-10-15T11:43:09.870Z,8.93
2018-10-15T11:45:39.175Z,8.67
2018-10-15T11:48:08.532Z,7.87
2018-10-15T11:50:37.990Z,9.20
2018-10-15T11:53:07.302Z,8.23
2018-10-15T11:55:36.651Z,9.90
2018-10-15T11:58:06.550Z,8.10
2018-10-15T12:00:35.903Z,8.67
2018-10-15T12:03:05.634Z,7.43
2018-10-15T12:05:35.022Z,7.67
2018-10-15T12:08:04.347Z,8.47
2018-10-15T12:10:33.635Z,9.00
2018-10-15T12:13:03.043Z,7.23
2018-10-15T12:15:32.439Z,7.50
2018-10-15T12:18:01.769Z,8.50
2018-10-15T12:20:31.075Z,7.83
2018-10-15T12:23:01.889Z,7.90
2018-10-15T12:25:31.244Z,8.33
2018-10-15T12:28:00.621Z,8.47
2018-10-15T12:30:29.886Z,7.53
2018-10-15T12:32:59.154Z,7.30
2018-10-15T12:35:28.384Z,9.67
2018-10-15T12:37:57.615Z,7.90
2018-10-15T12:40:26.995Z,7.67
2018-10-15T12:42:56.327Z,7.83
2018-10-15T12:45:30.711Z,8.23
2018-10-15T12:48:00.069Z,9.10
2018-10-15T12:50:29.457Z,7.57
2018-10-15T12:52:58.886Z,9.87
2018-10-15T12:55:28.209Z,6.93
2018-10-15T12:57:57.499Z,7.83
2018-10-15T13:00:26.878Z,7.20
2018-10-15T13:02:56.231Z,7.73
2018-10-15T13:05:27.681Z,11.93
2018-10-15T13:07:57.535Z,7.60
2018-10-15T13:10:27.595Z,6.73
2018-10-15T13:12:56.875Z,6.53
2018-10-15T13:15:26.552Z,7.57
2018-10-15T13:17:56.312Z,7.93
2018-10-15T13:20:25.712Z,7.10
2018-10-15T13:22:55.033Z,7.00
2018-10-15T13:25:24.324Z,10.03
2018-10-15T13:27:53.682Z,6.97
2018-10-15T13:30:23.120Z,7.27
2018-10-15T13:32:52.444Z,8.23
2018-10-15T13:35:21.700Z,8.27
2018-10-15T13:37:51.059Z,7.30
2018-10-15T13:40:20.404Z,10.47
2018-10-15T13:42:49.883Z,7.23
2018-10-15T13:45:19.313Z,7.00
2018-10-15T13:47:48.619Z,8.57
2018-10-15T13:50:17.944Z,7.77
2018-10-15T13:52:47.335Z,8.03
2018-10-15T13:55:16.649Z,7.20
2018-10-15T13:57:45.934Z,7.13
2018-10-15T14:00:25.991Z,7.40
2018-10-15T14:02:55.354Z,7.40
2018-10-15T14:05:24.680Z,8.23
2018-10-15T14:07:54.000Z,11.47
2018-10-15T14:10:23.291Z,7.50
2018-10-15T14:12:52.727Z,7.07
2018-10-15T14:15:22.009Z,7.20
2018-10-15T14:17:51.427Z,7.27
2018-10-15T14:20:20.703Z,7.27
2018-10-15T14:22:49.942Z,7.77
2018-10-15T14:25:19.279Z,6.83
2018-10-15T14:27:48.541Z,12.20
2018-10-15T14:30:19.053Z,6.67
2018-10-15T14:32:48.395Z,5.93
2018-10-15T14:35:17.709Z,6.70
2018-10-15T14:37:47.004Z,6.50
2018-10-15T14:40:17.687Z,7.97
2018-10-15T14:42:47.042Z,6.40
2018-10-15T14:45:17.132Z,6.37
2018-10-15T14:47:46.612Z,9.23
2018-10-15T14:50:17.276Z,6.90
2018-10-15T14:52:47.838Z,8.47
2018-10-15T14:55:17.228Z,7.63
2018-10-15T14:57:46.527Z,8.13
2018-10-15T15:00:16.662Z,8.57
2018-10-15T15:02:46.000Z,8.43
2018-10-15T15:05:15.700Z,6.20
2018-10-15T15:07:45.128Z,12.57
2018-10-15T15:10:25.899Z,8.33
2018-10-15T15:13:06.090Z,6.70
2018-10-15T15:15:35.454Z,7.37
2018-10-15T15:18:04.907Z,10.30
2018-10-15T15:20:34.186Z,8.03
2018-10-15T15:23:03.501Z,8.50
2018-10-15T15:25:32.834Z,8.40
2018-10-15T15:28:02.379Z,8.70
2018-10-15T15:30:31.526Z,7.50
2018-10-15T15:33:00.834Z,14.80
2018-10-15T15:35:30.117Z,28.40
2018-10-15T15:37:59.403Z,19.63
2018-10-15T15:40:28.775Z,17.87
2018-10-15T15:42:58.126Z,12.73
2018-10-15T15:45:27.593Z,11.53
2018-10-15T15:47:56.939Z,13.07
2018-10-15T15:50:26.248Z,11.37
2018-10-15T15:53:11.768Z,10.70
2018-10-15T15:55:40.987Z,7.97
2018-10-15T15:58:10.345Z,8.20
2018-10-15T16:00:39.656Z,10.37
2018-10-15T16:03:08.919Z,8.37
2018-10-15T16:05:38.230Z,8.80
2018-10-15T16:08:07.570Z,8.57
2018-10-15T16:10:36.880Z,8.50
2018-10-15T16:13:06.213Z,8.00
2018-10-15T16:15:35.645Z,8.33
2018-10-15T16:18:05.179Z,8.80
2018-10-15T16:20:36.341Z,9.90
2018-10-15T16:23:05.777Z,10.83
2018-10-15T16:25:35.037Z,10.50
2018-10-15T16:28:04.420Z,11.30
2018-10-15T16:30:33.722Z,12.00
2018-10-15T16:33:03.054Z,14.83
2018-10-15T16:35:32.367Z,13.87
2018-10-15T16:38:01.700Z,19.87
2018-10-15T16:40:31.078Z,17.00
2018-10-15T16:43:00.383Z,16.63
2018-10-15T16:45:29.736Z,18.67
2018-10-15T16:47:59.060Z,17.60
2018-10-15T16:50:28.410Z,17.73
2018-10-15T16:52:57.707Z,15.27
2018-10-15T16:55:30.639Z,19.43
2018-10-15T16:57:59.954Z,15.20
2018-10-15T17:00:29.247Z,14.27
2018-10-15T17:02:58.587Z,12.87
2018-10-15T17:05:27.830Z,12.73
2018-10-15T17:07:57.148Z,12.67
2018-10-15T17:10:26.504Z,13.47
2018-10-15T17:12:55.803Z,13.73
2018-10-15T17:15:25.149Z,13.37
2018-10-15T17:17:54.535Z,13.37
2018-10-15T17:20:23.923Z,12.83
2018-10-15T17:22:53.258Z,14.13
2018-10-15T17:25:22.663Z,11.67
2018-10-15T17:27:52.087Z,13.73
2018-10-15T17:30:21.398Z,17.17
2018-10-15T17:32:50.723Z,18.70
2018-10-15T17:35:20.079Z,27.60
2018-10-15T17:37:49.413Z,30.40
2018-10-15T17:40:18.715Z,31.60
2018-10-15T17:42:54.513Z,23.27
2018-10-15T17:45:23.831Z,19.53
2018-10-15T17:47:53.346Z,20.33
2018-10-15T17:50:22.782Z,16.93
2018-10-15T17:52:52.165Z,13.47
2018-10-15T17:55:21.536Z,12.03
2018-10-15T17:57:50.923Z,13.18
2018-10-15T18:00:22.019Z,10.13
2018-10-15T18:02:51.349Z,9.63
2018-10-15T18:05:20.671Z,11.43
2018-10-15T18:07:50.204Z,11.63
2018-10-15T18:10:19.600Z,12.27
2018-10-15T18:12:48.950Z,13.27
2018-10-15T18:15:18.287Z,14.53
2018-10-15T18:17:47.609Z,13.67
2018-10-15T18:20:17.016Z,13.83
2018-10-15T18:22:46.393Z,12.77
2018-10-15T18:25:15.759Z,14.00
2018-10-15T18:27:45.154Z,10.60
2018-10-15T18:30:14.725Z,12.70
2018-10-15T18:32:44.680Z,12.40
2018-10-15T18:35:14.521Z,11.60
2018-10-15T18:37:43.909Z,10.73
2018-10-15T18:40:13.239Z,9.70
2018-10-15T18:45:57.903Z,12.40
2018-10-15T18:48:26.960Z,12.53
2018-10-15T18:50:56.013Z,12.10
2018-10-15T18:53:25.050Z,12.37
2018-10-15T18:55:54.089Z,11.23
2018-10-15T18:58:23.119Z,13.43
2018-10-15T19:00:52.254Z,13.77
2018-10-15T19:03:23.306Z,13.03
2018-10-15T19:05:52.353Z,13.20
2018-10-15T19:08:21.405Z,13.30
2018-10-15T19:11:04.538Z,13.83
2018-10-15T19:13:33.704Z,12.77
2018-10-15T19:16:02.702Z,13.43
2018-10-15T19:18:31.799Z,16.42
2018-10-15T19:21:00.827Z,16.03
2018-10-15T19:23:30.125Z,12.53
2018-10-15T19:25:59.212Z,12.00
2018-10-15T19:28:28.230Z,11.63
2018-10-15T19:30:57.290Z,12.23
2018-10-15T19:33:26.328Z,13.97
2018-10-15T19:35:55.367Z,13.47
2018-10-15T19:38:24.400Z,14.20
2018-10-15T19:40:54.565Z,12.77
2018-10-15T19:43:23.593Z,12.80
2018-10-15T19:45:52.632Z,14.27
2018-10-15T19:48:21.681Z,12.27
2018-10-15T19:50:50.718Z,14.13
2018-10-15T19:53:19.829Z,13.40
2018-10-15T19:55:48.950Z,14.37
2018-10-15T19:58:18.033Z,22.93
2018-10-15T20:00:47.127Z,12.30
2018-10-15T20:03:16.205Z,22.70
2018-10-15T20:05:45.222Z,13.33
2018-10-15T20:08:14.258Z,14.20
2018-10-15T20:10:43.277Z,13.40
2018-10-15T20:13:12.384Z,14.23
2018-10-15T20:15:41.403Z,12.77
2018-10-15T20:18:10.445Z,11.90
2018-10-15T20:20:39.493Z,11.53
2018-10-15T20:23:08.569Z,14.10
2018-10-15T20:25:37.677Z,13.00
2018-10-15T20:28:06.718Z,15.33
2018-10-15T20:30:35.775Z,15.37
2018-10-15T20:33:04.837Z,14.53
2018-10-15T20:35:33.946Z,13.53
2018-10-15T20:38:03.010Z,13.83
2018-10-15T20:40:32.066Z,13.00
2018-10-15T20:43:01.131Z,14.13
2018-10-15T20:45:30.810Z,13.83
2018-10-15T20:47:59.829Z,17.53
2018-10-15T20:50:28.866Z,14.63
2018-10-15T20:52:57.882Z,14.67
2018-10-15T20:55:26.930Z,17.13
2018-10-15T20:57:56.004Z,14.00
2018-10-15T21:00:25.058Z,14.83
2018-10-15T21:02:54.125Z,13.87
2018-10-15T21:05:23.137Z,14.50
2018-10-15T21:07:52.187Z,13.57
2018-10-15T21:10:21.231Z,14.53
2018-10-15T21:12:50.268Z,14.97
2018-10-15T21:15:19.325Z,14.87
2018-10-15T21:17:48.340Z,16.10
2018-10-15T21:20:17.413Z,15.03
2018-10-15T21:22:46.435Z,13.30
2018-10-15T21:25:15.486Z,14.03
2018-10-15T21:27:44.533Z,14.90
2018-10-15T21:30:13.553Z,17.07
2018-10-15T21:32:42.651Z,16.13
2018-10-15T21:35:11.859Z,16.50
2018-10-15T21:37:40.910Z,17.10
2018-10-15T21:40:10.093Z,14.27
2018-10-15T21:42:39.145Z,14.50
2018-10-15T21:45:08.922Z,14.40
2018-10-15T21:47:38.022Z,12.37
2018-10-15T21:50:09.007Z,13.77
2018-10-15T21:52:38.026Z,12.80
2018-10-15T21:55:08.478Z,14.67
2018-10-15T21:57:37.634Z,16.83
2018-10-15T22:00:12.414Z,15.73
2018-10-15T22:02:41.795Z,14.30
2018-10-15T22:05:10.930Z,14.07
2018-10-15T22:07:40.697Z,14.73
2018-10-15T22:10:15.000Z,14.77
2018-10-15T22:12:44.337Z,14.80
2018-10-15T22:15:13.986Z,14.13
2018-10-15T22:17:42.994Z,14.50
2018-10-15T22:20:12.093Z,14.37
2018-10-15T22:22:41.105Z,14.23
2018-10-15T22:25:11.320Z,14.27
2018-10-15T22:27:40.385Z,15.30
2018-10-15T22:30:12.484Z,15.00
2018-10-15T22:32:41.546Z,14.30
2018-10-15T22:35:11.253Z,15.33
2018-10-15T22:37:40.293Z,14.47
2018-10-15T22:40:10.258Z,12.10
2018-10-15T22:42:39.888Z,13.13
2018-10-15T22:45:10.843Z,13.90
2018-10-15T22:47:40.338Z,15.47
2018-10-15T22:50:09.489Z,14.77
2018-10-15T22:52:38.622Z,15.03
2018-10-15T22:55:08.422Z,14.27
2018-10-15T22:57:37.439Z,14.90
2018-10-15T23:00:08.901Z,13.43
2018-10-15T23:02:37.945Z,16.00
2018-10-15T23:05:07.037Z,14.73
2018-10-15T23:07:36.125Z,13.53
2018-10-15T23:10:05.466Z,11.97
2018-10-15T23:12:34.514Z,13.47
2018-10-15T23:15:03.618Z,14.37
2018-10-15T23:17:32.630Z,14.80
2018-10-15T23:20:01.666Z,13.03
2018-10-15T23:22:30.693Z,15.17
2018-10-15T23:24:59.748Z,16.20
2018-10-15T23:27:28.805Z,16.00
2018-10-15T23:29:57.812Z,16.17
2018-10-15T23:32:26.856Z,15.40
2018-10-15T23:34:55.869Z,20.17
2018-10-15T23:37:24.911Z,15.80
2018-10-15T23:39:53.925Z,15.87
2018-10-15T23:42:22.989Z,14.13
2018-10-15T23:44:52.034Z,14.03
2018-10-15T23:47:21.056Z,13.13
2018-10-15T23:49:50.130Z,13.53
2018-10-15T23:52:19.161Z,14.17
2018-10-15T23:54:48.205Z,13.80
2018-10-15T23:57:17.245Z,13.73
2018-10-15T23:59:46.244Z,13.53
